Bertrix, Belgium
Current Conditions -  °F | °C
As of 10:55 PM on Sunday 25 Jan 2015 (Local Time) from EBFS Reporting Station
Light Snow Light Snow  
Wind Chill: 26°   Ceiling: 2000
Heat Index: 34°   Visibility: 2.5mi
Dew Point: 32°   Wind: 9mph
Humidity: 93%   Direction: 210°SSW
Pressure: 30.36"   Gusts: NA
Location:  49.86°N, 5.26°E
Report Text: EBFS 252155Z 21008KT 4000 -RASN FEW002 SCT010 BKN020 01/00 Q1028 GRN
Loading
Personal Weather Stations






























Interactive Weather Map New forecast layout! Learn more

10-Day Weather Forecast

Advertisements
Track Severe Weather on mobile